Time;durP1;ratioP1;P1;durP2;ratioP2;P2;SDS_P1;SDS_P2;PMS_P1;PMS_P2;Temp;Humidity;BMP_temperature;BMP_pressure;BME280_temperature;BME280_humidity;BME280_pressure;Samples;Min_cycle;Max_cycle;Signal;HPM_P1;HPM_P2
2024/02/27 00:00:22;;;;;;;20.10;12.53;;;;;;;7.66;100.00;101434.91;2080775;28;20446;-66
2024/02/27 00:01:23;;;;;;;15.33;10.33;;;;;;;6.97;100.00;101320.59;2080264;28;20192;-66
2024/02/27 00:02:23;;;;;;;17.20;11.20;;;;;;;7.99;100.00;101495.25;2080802;28;20645;-66
2024/02/27 00:03:24;;;;;;;21.83;11.10;;;;;;;8.04;100.00;101485.81;2081362;28;20188;-66
2024/02/27 00:04:24;;;;;;;19.83;11.40;;;;;;;7.64;100.00;101428.22;2081023;28;20216;-66
2024/02/27 00:05:25;;;;;;;18.53;10.93;;;;;;;8.07;100.00;101496.84;2079338;28;20197;-66
2024/02/27 00:06:25;;;;;;;17.47;10.00;;;;;;;8.05;100.00;101498.41;2079970;28;20184;-66
2024/02/27 00:07:26;;;;;;;21.57;12.43;;;;;;;8.06;100.00;101494.47;2080832;28;20205;-66
2024/02/27 00:08:26;;;;;;;17.60;10.23;;;;;;;8.08;100.00;101497.59;2080768;28;20264;-66
2024/02/27 00:09:27;;;;;;;15.60;9.67;;;;;;;8.08;100.00;101494.84;2081742;28;20188;-66
2024/02/27 00:10:27;;;;;;;19.47;11.00;;;;;;;8.03;100.00;101496.03;2081241;28;20658;-66
2024/02/27 00:11:29;;;;;;;16.60;10.50;;;;;;;7.98;100.00;101490.09;2081029;28;20200;-66
2024/02/27 00:12:30;;;;;;;22.30;10.73;;;;;;;8.04;100.00;101502.38;2080712;28;20216;-66
2024/02/27 00:13:31;;;;;;;18.80;9.73;;;;;;;8.03;100.00;101498.81;2078362;28;20498;-66
2024/02/27 00:14:32;;;;;;;16.00;9.00;;;;;;;8.03;100.00;101504.31;2078335;28;20526;-66
2024/02/27 00:15:32;;;;;;;22.47;9.17;;;;;;;6.97;100.00;101328.09;2081475;28;20187;-66
2024/02/27 00:16:33;;;;;;;19.53;9.67;;;;;;;7.87;100.00;101487.34;2080952;28;20278;-66
2024/02/27 00:17:33;;;;;;;17.17;9.33;;;;;;;8.12;100.00;101507.50;2080258;28;20188;-66
2024/02/27 00:18:34;;;;;;;16.97;9.77;;;;;;;8.11;100.00;101499.59;2080849;28;20208;-66
2024/02/27 00:19:34;;;;;;;16.23;8.80;;;;;;;8.17;100.00;101514.56;2079619;28;20205;-66
2024/02/27 00:20:35;;;;;;;13.37;7.70;;;;;;;8.18;100.00;101507.88;2080819;28;20195;-66
2024/02/27 00:21:35;;;;;;;18.63;10.87;;;;;;;8.10;100.00;101511.81;2081681;28;20200;-66
2024/02/27 00:22:36;;;;;;;16.43;8.40;;;;;;;8.12;100.00;101524.06;2080321;28;20228;-66
2024/02/27 00:23:37;;;;;;;15.47;8.97;;;;;;;8.08;100.00;101514.16;2080449;28;20192;-66
2024/02/27 00:24:38;;;;;;;14.03;8.30;;;;;;;8.10;100.00;101509.06;2080618;28;20240;-66
2024/02/27 00:25:38;;;;;;;15.53;7.90;;;;;;;8.10;100.00;101517.34;2079698;28;20664;-66
2024/02/27 00:26:39;;;;;;;14.23;7.00;;;;;;;8.19;100.00;101524.03;2080849;28;20192;-66
2024/02/27 00:27:39;;;;;;;8.53;4.60;;;;;;;8.19;100.00;101506.69;2081707;28;20584;-66
2024/02/27 00:28:40;;;;;;;7.97;5.33;;;;;;;8.21;100.00;101504.34;2080432;28;20569;-66
2024/02/27 00:29:40;;;;;;;12.20;6.67;;;;;;;8.29;100.00;101514.19;2079140;28;20684;-66
2024/02/27 00:30:41;;;;;;;11.30;6.43;;;;;;;8.36;100.00;101514.97;2080691;28;20242;-66
2024/02/27 00:31:41;;;;;;;9.50;5.23;;;;;;;8.40;100.00;101512.25;2080699;28;20229;-66
2024/02/27 00:32:41;;;;;;;7.67;4.40;;;;;;;8.43;100.00;101515.00;2080825;28;20196;-66
2024/02/27 00:33:42;;;;;;;9.63;5.17;;;;;;;7.53;100.00;101358.47;2081729;28;20211;-66
2024/02/27 00:34:43;;;;;;;7.27;4.40;;;;;;;8.46;100.00;101510.66;2080090;28;20199;-66
2024/02/27 00:35:43;;;;;;;11.00;4.80;;;;;;;8.46;100.00;101505.91;2080981;28;20626;-66
2024/02/27 00:36:44;;;;;;;8.50;4.57;;;;;;;8.52;100.00;101512.63;2080553;28;20680;-66
2024/02/27 00:37:44;;;;;;;9.17;4.30;;;;;;;8.60;100.00;101508.66;2079983;28;20224;-66
2024/02/27 00:38:45;;;;;;;8.63;4.37;;;;;;;8.62;100.00;101522.06;2080293;28;20185;-66
2024/02/27 00:39:45;;;;;;;6.30;4.03;;;;;;;8.72;100.00;101507.44;2081700;28;20177;-66
2024/02/27 00:40:46;;;;;;;8.47;3.80;;;;;;;8.76;100.00;101509.00;2080393;28;20222;-66
2024/02/27 00:41:48;;;;;;;6.77;4.10;;;;;;;8.81;100.00;101516.88;2080443;28;20199;-66
2024/02/27 00:42:48;;;;;;;10.80;4.47;;;;;;;8.36;100.00;101428.59;2080306;28;20287;-66
2024/02/27 00:43:49;;;;;;;10.93;4.90;;;;;;;8.06;100.00;101378.53;2080363;28;20432;-66
2024/02/27 00:44:49;;;;;;;9.13;4.47;;;;;;;8.96;100.00;101509.38;2080519;28;20217;-66
2024/02/27 00:45:50;;;;;;;5.20;3.23;;;;;;;9.02;100.00;101513.28;2081651;28;20192;-66
2024/02/27 00:46:50;;;;;;;10.13;4.40;;;;;;;7.95;100.00;101330.84;2080300;28;20200;-66
2024/02/27 00:47:51;;;;;;;7.40;4.30;;;;;;;9.14;100.00;101510.88;2079239;28;20270;-66
2024/02/27 00:48:51;;;;;;;9.77;4.93;;;;;;;9.17;100.00;101504.53;2080512;28;20221;-66
2024/02/27 00:49:52;;;;;;;6.63;3.63;;;;;;;9.22;100.00;101508.88;2080126;28;20181;-66
2024/02/27 00:50:52;;;;;;;9.27;4.40;;;;;;;9.20;100.00;101500.16;2080591;28;20584;-66
2024/02/27 00:51:53;;;;;;;5.07;3.27;;;;;;;8.25;100.00;101353.28;2081633;28;20189;-66
2024/02/27 00:52:53;;;;;;;7.47;4.20;;;;;;;9.20;100.00;101497.41;2080938;28;20250;-66
2024/02/27 00:53:54;;;;;;;7.60;3.70;;;;;;;9.26;100.00;101504.09;2078245;28;20261;-66
2024/02/27 00:54:54;;;;;;;8.03;4.43;;;;;;;9.25;100.00;101503.31;2080631;28;20190;-66
2024/02/27 00:55:55;;;;;;;5.93;3.53;;;;;;;9.23;100.00;101508.44;2080528;28;20185;-66
2024/02/27 00:56:55;;;;;;;6.80;3.70;;;;;;;9.28;100.00;101507.25;2081092;28;20189;-66
2024/02/27 00:57:56;;;;;;;10.60;4.17;;;;;;;9.16;100.00;101483.59;2087973;28;20288;-66
2024/02/27 00:58:56;;;;;;;6.37;3.30;;;;;;;9.00;100.00;101458.38;2087751;28;20238;-66
2024/02/27 00:59:57;;;;;;;6.53;4.10;;;;;;;9.33;100.00;101504.84;2080718;28;20279;-66
2024/02/27 01:00:57;;;;;;;7.53;4.37;;;;;;;9.32;100.00;101503.28;2079577;28;20201;-66
2024/02/27 01:01:58;;;;;;;9.37;4.03;;;;;;;9.24;100.00;101487.91;2079647;28;20191;-66
2024/02/27 01:02:58;;;;;;;9.73;4.00;;;;;;;9.39;100.00;101513.53;2080953;28;20204;-66
2024/02/27 01:03:59;;;;;;;8.57;4.17;;;;;;;9.39;100.00;101508.00;2079963;28;20249;-66
2024/02/27 01:04:59;;;;;;;6.80;3.93;;;;;;;9.41;100.00;101511.94;2079924;28;20647;-66
2024/02/27 01:06:00;;;;;;;5.80;3.67;;;;;;;9.39;100.00;101499.69;2079662;28;20610;-66
2024/02/27 01:07:00;;;;;;;7.00;3.63;;;;;;;9.38;100.00;101512.72;2080479;28;20259;-66
2024/02/27 01:08:01;;;;;;;10.80;4.10;;;;;;;9.38;100.00;101506.41;2079485;28;20180;-66
2024/02/27 01:09:01;;;;;;;10.50;4.20;;;;;;;9.43;100.00;101514.28;2081368;28;20243;-66
2024/02/27 01:10:04;;;;;;;9.27;4.33;;;;;;;9.39;100.00;101511.53;2080896;28;20193;-66
2024/02/27 01:11:04;;;;;;;5.70;3.40;;;;;;;8.50;100.00;101373.31;2080417;28;20190;-66
2024/02/27 01:12:06;;;;;;;7.83;4.37;;;;;;;9.40;100.00;101512.31;2079951;28;20466;-66
2024/02/27 01:13:07;;;;;;;10.40;5.20;;;;;;;9.41;100.00;101517.47;2080521;28;20255;-66
2024/02/27 01:14:07;;;;;;;8.83;4.53;;;;;;;9.33;100.00;101495.78;2080305;28;20955;-66
2024/02/27 01:15:08;;;;;;;8.03;4.20;;;;;;;9.51;100.00;101511.09;2080871;28;20658;-66
2024/02/27 01:16:09;;;;;;;5.67;3.67;;;;;;;9.52;100.00;101515.41;2080591;28;20189;-66
2024/02/27 01:17:09;;;;;;;7.43;4.63;;;;;;;9.56;100.00;101524.50;2080225;28;20497;-66
2024/02/27 01:18:10;;;;;;;9.30;4.03;;;;;;;9.55;100.00;101522.94;2080602;28;20196;-66
2024/02/27 01:19:10;;;;;;;7.60;3.63;;;;;;;9.53;100.00;101530.06;2078086;28;20667;-66
2024/02/27 01:20:15;;;;;;;9.27;4.27;;;;;;;9.49;100.00;101520.97;2079861;28;20231;-66
2024/02/27 01:21:15;;;;;;;9.63;4.20;;;;;;;9.50;100.00;101523.34;2080613;28;20709;-66
2024/02/27 01:22:27;;;;;;;9.23;4.93;;;;;;;9.51;100.00;101518.59;2080924;28;20843;-66
2024/02/27 01:23:28;;;;;;;6.40;3.87;;;;;;;9.52;100.00;101514.63;2080860;28;20287;-66
2024/02/27 01:24:28;;;;;;;8.20;4.33;;;;;;;9.39;100.00;101503.22;2080312;28;20479;-66
2024/02/27 01:25:29;;;;;;;6.10;3.77;;;;;;;9.49;100.00;101530.06;2080234;28;20200;-66
2024/02/27 01:26:30;;;;;;;10.23;4.77;;;;;;;9.35;100.00;101502.47;2079802;28;20220;-66
2024/02/27 01:27:31;;;;;;;8.00;4.33;;;;;;;9.50;100.00;101531.66;2080299;28;20198;-66
2024/02/27 01:28:32;;;;;;;8.20;4.03;;;;;;;9.36;100.00;101506.81;2088290;28;20462;-66
2024/02/27 01:29:32;;;;;;;10.70;4.57;;;;;;;9.45;100.00;101526.53;2088462;28;20200;-66
2024/02/27 01:30:33;;;;;;;9.17;3.93;;;;;;;9.44;100.00;101524.16;2079909;28;20271;-66
2024/02/27 01:31:33;;;;;;;8.63;4.93;;;;;;;9.40;100.00;101529.72;2079659;28;20197;-66
2024/02/27 01:32:34;;;;;;;7.07;4.10;;;;;;;9.39;100.00;101524.59;2080042;28;20200;-66
2024/02/27 01:33:34;;;;;;;9.10;4.77;;;;;;;9.26;100.00;101509.63;2079548;28;20208;-66
2024/02/27 01:34:35;;;;;;;9.63;5.27;;;;;;;9.26;100.00;101512.38;2079432;28;20203;-66
2024/02/27 01:35:35;;;;;;;8.83;5.10;;;;;;;9.29;100.00;101529.00;2080688;28;20583;-66
2024/02/27 01:36:36;;;;;;;11.53;4.70;;;;;;;9.27;100.00;101533.34;2079288;28;20210;-66
2024/02/27 01:37:37;;;;;;;10.00;5.27;;;;;;;9.24;100.00;101525.84;2080391;28;20277;-66
2024/02/27 01:38:37;;;;;;;13.80;5.63;;;;;;;9.22;100.00;101526.22;2079118;28;20228;-66
2024/02/27 01:39:38;;;;;;;8.60;5.13;;;;;;;8.26;100.00;101387.97;2080189;28;20192;-66
2024/02/27 01:40:38;;;;;;;12.00;6.33;;;;;;;9.17;100.00;101523.09;2080260;28;20200;-66
2024/02/27 01:41:39;;;;;;;7.93;4.70;;;;;;;8.78;100.00;101481.78;2079330;28;20685;-66
2024/02/27 01:42:44;;;;;;;10.43;4.53;;;;;;;9.09;100.00;101543.66;2080113;28;20196;-66
2024/02/27 01:43:45;;;;;;;7.90;5.10;;;;;;;9.02;100.00;101535.41;2078884;28;20484;-66
2024/02/27 01:44:51;;;;;;;13.37;5.07;;;;;;;8.10;100.00;101399.41;2079506;28;20583;-66
2024/02/27 01:46:01;;;;;;;8.83;4.63;;;;;;;8.72;100.00;101512.97;2080367;28;20192;-66
2024/02/27 01:47:01;;;;;;;8.93;4.87;;;;;;;8.23;100.00;101427.44;2080237;28;20420;-66
2024/02/27 01:48:03;;;;;;;8.37;4.77;;;;;;;7.98;100.00;101388.78;2078961;28;20434;-66
2024/02/27 01:49:04;;;;;;;7.97;4.73;;;;;;;8.86;100.00;101527.53;2080998;28;20684;-66
2024/02/27 01:50:05;;;;;;;8.07;4.73;;;;;;;8.87;100.00;101529.09;2079963;28;20825;-66
2024/02/27 01:51:07;;;;;;;9.13;4.17;;;;;;;8.81;100.00;101530.72;2080428;28;20594;-66
2024/02/27 01:52:08;;;;;;;8.77;4.57;;;;;;;8.81;100.00;101544.53;2080140;28;20513;-66
2024/02/27 01:53:08;;;;;;;8.83;4.77;;;;;;;8.78;100.00;101522.44;2080046;28;20486;-66
2024/02/27 01:54:11;;;;;;;9.07;4.63;;;;;;;8.85;100.00;101527.94;2079626;28;20231;-66
2024/02/27 01:55:14;;;;;;;7.93;4.87;;;;;;;8.77;100.00;101518.88;2081005;28;20226;-66
2024/02/27 01:56:15;;;;;;;6.03;3.37;;;;;;;8.80;100.00;101522.81;2079303;28;20462;-66
2024/02/27 01:57:19;;;;;;;6.67;3.83;;;;;;;8.82;100.00;101528.75;2079958;28;20447;-66
2024/02/27 01:58:20;;;;;;;6.80;4.33;;;;;;;8.82;100.00;101523.22;2080183;28;20842;-66
2024/02/27 01:59:24;;;;;;;7.63;3.67;;;;;;;8.06;100.00;101414.41;2080356;28;20463;-66
2024/02/27 02:00:24;;;;;;;8.00;4.20;;;;;;;8.72;100.00;101521.25;2080435;28;20188;-66
2024/02/27 02:01:28;;;;;;;6.90;4.03;;;;;;;8.70;100.00;101526.38;2080395;28;20431;-66
2024/02/27 02:02:34;;;;;;;10.73;5.23;;;;;;;8.70;100.00;101521.66;2080105;28;20206;-66
2024/02/27 02:03:38;;;;;;;8.17;3.93;;;;;;;8.70;100.00;101524.41;2079998;28;20450;-66
2024/02/27 02:04:38;;;;;;;9.43;3.63;;;;;;;8.74;100.00;101527.97;2079643;28;20487;-66
2024/02/27 02:05:39;;;;;;;6.40;4.07;;;;;;;7.99;100.00;101406.16;2079293;28;20454;-66
2024/02/27 02:06:41;;;;;;;7.87;3.80;;;;;;;8.76;100.00;101525.59;2079485;28;20590;-66
2024/02/27 02:07:42;;;;;;;6.43;3.37;;;;;;;8.78;100.00;101519.66;2079700;28;20266;-66
2024/02/27 02:08:43;;;;;;;6.90;3.87;;;;;;;8.77;100.00;101535.44;2080251;28;20426;-66
2024/02/27 02:09:44;;;;;;;8.33;3.77;;;;;;;8.74;100.00;101527.16;2078535;28;20505;-66
2024/02/27 02:10:44;;;;;;;7.10;3.57;;;;;;;8.77;100.00;101527.16;2080204;28;20200;-66
2024/02/27 02:11:46;;;;;;;5.57;3.17;;;;;;;8.81;100.00;101532.69;2079004;28;20211;-66
2024/02/27 02:12:48;;;;;;;5.80;3.53;;;;;;;8.82;100.00;101528.75;2079795;28;20279;-66
2024/02/27 02:13:48;;;;;;;8.93;3.30;;;;;;;8.85;100.00;101527.94;2079347;28;20488;-66
2024/02/27 02:14:49;;;;;;;8.07;3.70;;;;;;;8.84;100.00;101524.41;2080098;28;20909;-66
2024/02/27 02:15:50;;;;;;;5.23;3.17;;;;;;;8.80;100.00;101531.91;2081010;28;20742;-66
2024/02/27 02:16:52;;;;;;;7.53;3.87;;;;;;;8.78;100.00;101530.72;2079875;28;20294;-66
2024/02/27 02:17:52;;;;;;;6.10;3.73;;;;;;;8.77;100.00;101529.16;2080222;28;20291;-66
2024/02/27 02:18:53;;;;;;;6.90;3.80;;;;;;;8.81;100.00;101527.16;2080092;28;20430;-66
2024/02/27 02:19:53;;;;;;;6.73;3.57;;;;;;;8.76;100.00;101522.81;2079484;28;20201;-66
2024/02/27 02:20:54;;;;;;;6.73;4.13;;;;;;;8.82;100.00;101524.00;2080159;28;20188;-66
2024/02/27 02:21:56;;;;;;;9.40;4.17;;;;;;;8.86;100.00;101529.53;2080520;28;20200;-66
2024/02/27 02:22:57;;;;;;;6.47;3.80;;;;;;;8.88;100.00;101532.69;2080110;28;20191;-66
2024/02/27 02:23:59;;;;;;;7.97;3.90;;;;;;;8.89;100.00;101535.03;2078169;28;20530;-66
2024/02/27 02:25:01;;;;;;;9.73;3.67;;;;;;;8.94;100.00;101539.38;2079384;28;20196;-66
2024/02/27 02:26:02;;;;;;;7.20;4.10;;;;;;;8.90;100.00;101533.84;2079768;28;20482;-66
2024/02/27 02:27:02;;;;;;;6.93;3.80;;;;;;;8.85;100.00;101508.59;2080095;28;20433;-66
2024/02/27 02:28:04;;;;;;;10.90;3.83;;;;;;;8.99;100.00;101541.72;2080722;28;20462;-66
2024/02/27 02:29:05;;;;;;;9.63;4.17;;;;;;;8.98;100.00;101545.69;2080127;28;20247;-66
2024/02/27 02:30:06;;;;;;;9.43;3.70;;;;;;;9.00;100.00;101552.38;2078810;28;20444;-66
2024/02/27 02:31:07;;;;;;;7.83;3.40;;;;;;;8.37;100.00;101446.75;2079917;28;20196;-66
2024/02/27 02:32:07;;;;;;;5.77;3.40;;;;;;;8.82;100.00;101512.16;2079547;28;20439;-66
2024/02/27 02:33:11;;;;;;;7.23;4.00;;;;;;;9.03;100.00;101550.81;2079911;28;20181;-66
2024/02/27 02:34:11;;;;;;;7.73;3.67;;;;;;;9.04;100.00;101561.47;2080371;28;20220;-66
2024/02/27 02:35:12;;;;;;;6.57;3.60;;;;;;;9.04;100.00;101552.38;2080367;28;20443;-66
2024/02/27 02:36:12;;;;;;;10.40;3.77;;;;;;;9.05;100.00;101553.94;2080079;28;20193;-66
2024/02/27 02:37:13;;;;;;;8.60;3.87;;;;;;;9.05;100.00;101557.50;2079714;28;20251;-66
2024/02/27 02:38:14;;;;;;;6.97;3.67;;;;;;;9.05;100.00;101551.97;2079400;28;20200;-66
2024/02/27 02:39:14;;;;;;;6.13;3.00;;;;;;;9.01;100.00;101553.97;2079855;28;20181;-66
2024/02/27 02:40:22;;;;;;;6.97;3.47;;;;;;;8.65;100.00;101501.91;2080049;28;20237;-66
2024/02/27 02:41:22;;;;;;;8.53;3.50;;;;;;;9.04;100.00;101552.38;2079473;28;20191;-66
2024/02/27 02:42:23;;;;;;;5.13;3.23;;;;;;;9.02;100.00;101552.00;2079799;28;20436;-66
2024/02/27 02:43:23;;;;;;;6.50;4.03;;;;;;;9.02;100.00;101561.06;2079532;28;20197;-66
2024/02/27 02:44:24;;;;;;;6.63;3.50;;;;;;;9.01;100.00;101558.69;2079495;28;20224;-66
2024/02/27 02:45:24;;;;;;;6.37;3.33;;;;;;;9.02;100.00;101560.28;2080126;28;20211;-66
2024/02/27 02:46:25;;;;;;;8.00;3.63;;;;;;;8.99;100.00;101553.59;2079564;28;20218;-66
2024/02/27 02:47:25;;;;;;;5.43;3.60;;;;;;;9.02;100.00;101563.81;2080769;28;20192;-66
2024/02/27 02:48:26;;;;;;;4.57;3.00;;;;;;;9.03;100.00;101568.16;2079626;28;20195;-66
2024/02/27 02:49:26;;;;;;;6.27;3.07;;;;;;;9.03;100.00;101556.34;2079884;28;20270;-66
2024/02/27 02:50:29;;;;;;;7.93;3.67;;;;;;;8.36;100.00;101461.75;2079812;28;20269;-66
2024/02/27 02:51:33;;;;;;;6.23;3.30;;;;;;;8.60;100.00;101491.28;2079743;28;20219;-66
2024/02/27 02:52:34;;;;;;;6.00;3.23;;;;;;;9.09;100.00;101563.03;2077755;28;20470;-66
2024/02/27 02:53:35;;;;;;;7.53;3.67;;;;;;;9.02;100.00;101555.53;2080483;28;20431;-66
2024/02/27 02:54:35;;;;;;;7.43;3.07;;;;;;;9.07;100.00;101571.72;2078975;28;20465;-66
2024/02/27 02:55:40;;;;;;;9.23;3.10;;;;;;;9.06;100.00;101561.03;2080157;28;20192;-66
2024/02/27 02:56:41;;;;;;;6.37;3.00;;;;;;;9.08;100.00;101566.97;2079052;28;20231;-66
2024/02/27 02:57:42;;;;;;;5.60;2.83;;;;;;;9.05;100.00;101563.03;2079680;28;20467;-66
2024/02/27 02:58:42;;;;;;;5.10;3.27;;;;;;;9.06;100.00;101563.81;2079353;28;20199;-66
2024/02/27 02:59:44;;;;;;;6.73;3.43;;;;;;;9.07;100.00;101566.19;2080218;28;20183;-66
2024/02/27 03:00:44;;;;;;;6.20;3.03;;;;;;;9.10;100.00;101570.94;2080128;28;20690;-66
2024/02/27 03:01:45;;;;;;;4.80;3.20;;;;;;;9.11;100.00;101574.47;2079764;28;20192;-66
2024/02/27 03:02:45;;;;;;;4.67;2.90;;;;;;;9.14;100.00;101579.22;2079539;28;20346;-66
2024/02/27 03:03:46;;;;;;;6.77;3.40;;;;;;;9.16;100.00;101576.81;2079967;28;20582;-66
2024/02/27 03:04:47;;;;;;;6.07;2.90;;;;;;;9.15;100.00;101576.06;2079698;28;20295;-66
2024/02/27 03:05:47;;;;;;;8.47;3.60;;;;;;;9.16;100.00;101574.84;2080133;28;20188;-66
2024/02/27 03:06:48;;;;;;;7.37;3.67;;;;;;;9.17;100.00;101578.41;2079975;28;20192;-66
2024/02/27 03:07:48;;;;;;;5.60;2.77;;;;;;;9.19;100.00;101570.50;2078458;28;20286;-66
2024/02/27 03:08:49;;;;;;;7.03;3.20;;;;;;;9.19;100.00;101565.78;2079954;28;20193;-66
2024/02/27 03:09:49;;;;;;;6.93;2.97;;;;;;;9.20;100.00;101581.16;2079592;28;20196;-66
2024/02/27 03:10:50;;;;;;;7.97;3.50;;;;;;;8.99;100.00;101545.28;2079754;28;20188;-66
2024/02/27 03:11:50;;;;;;;5.23;2.67;;;;;;;9.19;100.00;101571.31;2080559;28;20270;-66
2024/02/27 03:12:51;;;;;;;6.90;2.83;;;;;;;9.20;100.00;101574.84;2080189;28;20647;-66
2024/02/27 03:13:51;;;;;;;4.93;2.83;;;;;;;9.10;100.00;101562.63;2077787;28;20734;-66
2024/02/27 03:14:52;;;;;;;6.13;3.03;;;;;;;9.01;100.00;101551.19;2079479;28;20219;-66
2024/02/27 03:15:53;;;;;;;4.80;2.53;;;;;;;9.22;100.00;101587.09;2079213;28;20652;-66
2024/02/27 03:16:54;;;;;;;8.17;2.80;;;;;;;9.24;100.00;101583.91;2079925;28;20195;-66
2024/02/27 03:17:54;;;;;;;7.27;3.20;;;;;;;9.24;100.00;101593.03;2082107;28;20192;-66
2024/02/27 03:18:55;;;;;;;6.13;3.40;;;;;;;9.21;100.00;101588.28;2080782;28;20456;-66
2024/02/27 03:19:56;;;;;;;6.00;2.83;;;;;;;8.67;100.00;101514.16;2081149;28;20220;-66
2024/02/27 03:20:56;;;;;;;5.27;2.80;;;;;;;9.11;100.00;101580.00;2079141;28;20194;-66
2024/02/27 03:21:57;;;;;;;8.20;2.53;;;;;;;9.26;100.00;101601.69;2081738;28;20220;-66
2024/02/27 03:22:57;;;;;;;5.83;2.77;;;;;;;8.52;100.00;101485.00;2080522;28;20611;-66
2024/02/27 03:23:58;;;;;;;4.30;2.30;;;;;;;9.26;100.00;101598.13;2081882;28;20548;-66
2024/02/27 03:25:05;;;;;;;3.93;2.30;;;;;;;8.80;100.00;101537.44;2080608;28;20633;-66
2024/02/27 03:26:05;;;;;;;4.37;2.63;;;;;;;9.16;100.00;101590.66;2081604;28;20181;-66
2024/02/27 03:27:06;;;;;;;5.47;2.40;;;;;;;9.28;100.00;101609.59;2081311;28;20446;-66
2024/02/27 03:28:06;;;;;;;5.17;2.40;;;;;;;9.27;100.00;101603.25;2080724;28;20243;-66
2024/02/27 03:29:07;;;;;;;3.77;2.37;;;;;;;9.29;100.00;101602.88;2081174;28;20734;-66
2024/02/27 03:30:10;;;;;;;5.80;2.27;;;;;;;9.32;100.00;101607.63;2081452;28;20239;-66
2024/02/27 03:31:11;;;;;;;4.87;2.83;;;;;;;9.33;100.00;101600.88;2081755;28;20709;-66
2024/02/27 03:32:11;;;;;;;4.57;2.67;;;;;;;9.33;100.00;101606.41;2081198;28;20453;-66
2024/02/27 03:33:11;;;;;;;8.40;3.03;;;;;;;9.29;100.00;101605.63;2080896;28;20681;-66
2024/02/27 03:34:12;;;;;;;5.57;2.77;;;;;;;9.12;100.00;101581.59;2080779;28;20738;-66
2024/02/27 03:35:13;;;;;;;5.17;2.40;;;;;;;8.41;100.00;101464.09;2080736;28;20184;-66
2024/02/27 03:36:13;;;;;;;4.47;2.50;;;;;;;9.29;100.00;101603.66;2080935;28;20184;-66
2024/02/27 03:37:32;;;;;;;8.43;3.27;;;;;;;9.32;100.00;101608.38;2081314;28;20192;-66
2024/02/27 03:38:33;;;;;;;6.07;2.90;;;;;;;9.37;100.00;101612.72;2081420;28;20189;-66
2024/02/27 03:39:33;;;;;;;4.90;2.63;;;;;;;9.37;100.00;101607.97;2080953;28;20454;-66
2024/02/27 03:40:36;;;;;;;5.47;2.97;;;;;;;9.41;100.00;101617.06;2080658;28;20212;-66
2024/02/27 03:41:36;;;;;;;4.90;2.43;;;;;;;9.40;100.00;101621.03;2081124;28;20435;-66
2024/02/27 03:42:37;;;;;;;6.20;2.80;;;;;;;9.43;100.00;101619.44;2080963;28;20616;-66
2024/02/27 03:43:37;;;;;;;6.10;2.90;;;;;;;9.43;100.00;101622.19;2088574;28;20681;-66
2024/02/27 03:44:38;;;;;;;5.50;2.40;;;;;;;9.44;100.00;101629.31;2089437;28;20805;-66
2024/02/27 03:45:38;;;;;;;4.87;2.83;;;;;;;9.50;100.00;101625.72;2081069;28;20563;-66
2024/02/27 03:46:39;;;;;;;6.53;2.57;;;;;;;9.47;100.00;101620.19;2080212;28;20643;-66
2024/02/27 03:47:39;;;;;;;6.47;2.40;;;;;;;9.45;100.00;101628.91;2080638;28;20189;-66
2024/02/27 03:48:40;;;;;;;6.17;2.73;;;;;;;9.15;100.00;101591.84;2079795;28;20678;-66
2024/02/27 03:49:40;;;;;;;4.73;2.33;;;;;;;9.55;100.00;101622.53;2081117;28;20550;-66
2024/02/27 03:50:42;;;;;;;5.70;2.43;;;;;;;9.57;100.00;101625.69;2081580;28;20189;-66
2024/02/27 03:51:42;;;;;;;5.67;2.70;;;;;;;9.58;100.00;101624.50;2081431;28;20199;-66
2024/02/27 03:52:43;;;;;;;5.13;2.70;;;;;;;9.49;100.00;101634.44;2080573;28;20450;-66
2024/02/27 03:53:43;;;;;;;5.20;2.80;;;;;;;9.45;100.00;101628.91;2081122;28;20346;-66
2024/02/27 03:54:44;;;;;;;4.87;2.70;;;;;;;9.42;100.00;101631.66;2080752;28;20578;-66
2024/02/27 03:55:44;;;;;;;4.30;2.77;;;;;;;9.47;100.00;101636.78;2081070;28;20276;-66
2024/02/27 03:56:45;;;;;;;7.17;2.87;;;;;;;9.55;100.00;101636.38;2081926;28;20208;-66
2024/02/27 03:57:45;;;;;;;5.73;3.00;;;;;;;9.60;100.00;101637.94;2080990;28;20584;-66
2024/02/27 03:58:48;;;;;;;7.80;2.43;;;;;;;9.59;100.00;101642.66;2081378;28;20196;-66
2024/02/27 03:59:49;;;;;;;6.93;3.03;;;;;;;9.63;100.00;101639.91;2080812;28;20268;-66
2024/02/27 04:00:50;;;;;;;5.40;2.47;;;;;;;9.63;100.00;101645.44;2081014;28;20531;-66
2024/02/27 04:01:51;;;;;;;6.47;2.80;;;;;;;9.58;100.00;101635.56;2079619;28;20189;-66
2024/02/27 04:02:53;;;;;;;10.53;3.53;;;;;;;9.70;100.00;101642.66;2081292;28;20464;-66
2024/02/27 04:03:53;;;;;;;5.47;2.97;;;;;;;9.73;100.00;101639.84;2081044;28;20189;-66
2024/02/27 04:04:54;;;;;;;5.00;3.17;;;;;;;9.77;100.00;101637.88;2080148;28;20511;-66
2024/02/27 04:05:54;;;;;;;5.77;3.00;;;;;;;9.78;100.00;101641.44;2081237;28;20212;-66
2024/02/27 04:06:55;;;;;;;6.60;2.90;;;;;;;9.69;100.00;101638.31;2080758;28;20200;-66
2024/02/27 04:07:55;;;;;;;7.20;3.07;;;;;;;9.68;100.00;101633.97;2081113;28;20213;-66
2024/02/27 04:08:56;;;;;;;8.60;3.10;;;;;;;9.68;100.00;101637.50;2081699;28;20185;-66
2024/02/27 04:09:56;;;;;;;6.17;3.07;;;;;;;9.60;100.00;101641.50;2079549;28;20207;-66
2024/02/27 04:10:57;;;;;;;4.60;2.47;;;;;;;9.55;100.00;101638.34;2081287;28;20185;-66
2024/02/27 04:11:57;;;;;;;7.03;3.13;;;;;;;8.75;100.00;101509.41;2080674;28;20670;-66
2024/02/27 04:12:58;;;;;;;5.67;2.80;;;;;;;9.59;100.00;101626.06;2080559;28;20192;-66
2024/02/27 04:13:59;;;;;;;6.77;3.30;;;;;;;9.68;100.00;101636.72;2080911;28;20310;-66
2024/02/27 04:15:01;;;;;;;10.60;2.87;;;;;;;9.75;100.00;101639.47;2081669;28;20181;-66
2024/02/27 04:16:02;;;;;;;8.73;3.43;;;;;;;9.66;100.00;101626.06;2080723;28;20475;-66
2024/02/27 04:17:02;;;;;;;4.80;2.53;;;;;;;9.76;100.00;101644.59;2080667;28;20458;-66
2024/02/27 04:18:04;;;;;;;8.87;3.60;;;;;;;9.81;100.00;101652.50;2080507;28;20474;-66
2024/02/27 04:19:05;;;;;;;13.57;3.70;;;;;;;9.83;100.00;101650.09;2080173;28;20185;-66
2024/02/27 04:20:05;;;;;;;6.73;2.97;;;;;;;9.89;100.00;101656.00;2080555;28;20941;-66
2024/02/27 04:21:06;;;;;;;4.80;2.70;;;;;;;9.94;100.00;101645.28;2080465;28;20676;-66
2024/02/27 04:22:06;;;;;;;5.43;2.73;;;;;;;9.98;100.00;101651.59;2080102;28;20235;-66
2024/02/27 04:23:07;;;;;;;8.27;3.60;;;;;;;9.98;100.00;101651.59;2078906;28;20706;-66
2024/02/27 04:24:08;;;;;;;10.03;3.03;;;;;;;10.05;100.00;101653.59;2080289;28;20807;-66
2024/02/27 04:25:08;;;;;;;5.73;3.10;;;;;;;9.63;100.00;101595.63;2079283;28;20653;-66
2024/02/27 04:26:09;;;;;;;5.23;2.77;;;;;;;10.00;100.00;101653.97;2080433;28;20224;-66
2024/02/27 04:27:09;;;;;;;7.63;2.80;;;;;;;10.01;100.00;101661.09;2081446;28;20225;-66
2024/02/27 04:28:10;;;;;;;7.20;3.80;;;;;;;10.07;100.00;101665.84;2079911;28;20212;-66
2024/02/27 04:29:10;;;;;;;6.47;2.80;;;;;;;10.10;100.00;101662.25;2080605;28;20215;-66
2024/02/27 04:30:11;;;;;;;6.27;2.60;;;;;;;10.14;100.00;101663.03;2080827;28;20363;-66
2024/02/27 04:31:12;;;;;;;6.03;3.43;;;;;;;9.68;100.00;101584.16;2080027;28;20582;-66
2024/02/27 04:32:13;;;;;;;8.63;3.37;;;;;;;10.23;100.00;101673.66;2080506;28;20199;-66
2024/02/27 04:33:13;;;;;;;5.00;2.63;;;;;;;10.15;100.00;101666.59;2081122;28;20761;-66
2024/02/27 04:34:15;;;;;;;5.47;2.53;;;;;;;10.16;100.00;101671.72;2080347;28;20435;-66
2024/02/27 04:35:15;;;;;;;7.53;2.90;;;;;;;10.05;100.00;101664.66;2080659;28;20197;-66
2024/02/27 04:36:16;;;;;;;4.07;2.70;;;;;;;10.08;100.00;101658.28;2080394;28;20438;-66
2024/02/27 04:37:17;;;;;;;6.63;3.00;;;;;;;10.11;100.00;101661.06;2080043;28;20272;-66
2024/02/27 04:38:17;;;;;;;5.37;2.73;;;;;;;10.13;100.00;101668.97;2080679;28;20192;-66
2024/02/27 04:39:18;;;;;;;5.60;2.80;;;;;;;9.79;100.00;101629.16;2080774;28;20196;-66
2024/02/27 04:40:19;;;;;;;5.17;3.13;;;;;;;10.11;100.00;101665.81;2079674;28;20193;-66
2024/02/27 04:41:19;;;;;;;7.73;3.60;;;;;;;10.12;100.00;101670.97;2080469;28;20202;-66
2024/02/27 04:42:20;;;;;;;8.73;3.10;;;;;;;10.15;100.00;101670.13;2079878;28;20268;-66